createdAt,value
2022-08-17T00:02:26.747Z,9.83
2022-08-17T00:04:55.032Z,10.03
2022-08-17T00:07:22.055Z,10.77
2022-08-17T00:09:48.723Z,10.70
2022-08-17T00:12:41.741Z,9.63
2022-08-17T00:15:05.081Z,10.60
2022-08-17T00:17:32.447Z,10.40
2022-08-17T00:20:00.247Z,10.23
2022-08-17T00:22:34.789Z,11.33
2022-08-17T00:25:09.407Z,10.63
2022-08-17T00:27:36.899Z,10.40
2022-08-17T00:30:06.101Z,10.33
2022-08-17T00:33:15.409Z,11.10
2022-08-17T00:35:29.420Z,10.93
2022-08-17T00:37:56.144Z,12.37
2022-08-17T00:40:24.733Z,11.53
2022-08-17T00:42:52.489Z,12.60
2022-08-17T00:45:20.307Z,11.73
2022-08-17T00:47:47.597Z,11.50
2022-08-17T00:50:16.728Z,11.07
2022-08-17T00:52:52.426Z,10.50
2022-08-17T00:55:20.040Z,10.90
2022-08-17T00:57:54.638Z,10.70
2022-08-17T01:00:28.612Z,11.03
2022-08-17T01:02:59.989Z,11.53
2022-08-17T01:05:29.897Z,11.63
2022-08-17T01:07:58.730Z,11.40
2022-08-17T01:11:00.629Z,11.90
2022-08-17T01:13:21.554Z,11.57
2022-08-17T01:16:06.594Z,11.30
2022-08-17T01:18:34.160Z,11.87
2022-08-17T01:21:09.064Z,11.90
2022-08-17T01:23:36.748Z,12.07
2022-08-17T01:26:06.251Z,11.77
2022-08-17T01:28:52.688Z,11.87
2022-08-17T01:31:24.109Z,11.50
2022-08-17T01:33:50.901Z,12.57
2022-08-17T01:36:18.043Z,12.03
2022-08-17T01:38:44.696Z,12.60
2022-08-17T01:41:15.353Z,12.03
2022-08-17T01:43:48.936Z,12.20
2022-08-17T01:46:23.625Z,12.07
2022-08-17T01:48:51.341Z,12.97
2022-08-17T01:51:18.369Z,12.30
2022-08-17T01:53:49.440Z,12.77
2022-08-17T01:56:20.126Z,12.40
2022-08-17T01:58:47.152Z,13.00
2022-08-17T02:01:18.653Z,11.63
2022-08-17T02:03:53.210Z,12.80
2022-08-17T02:06:28.343Z,12.33
2022-08-17T02:09:01.745Z,13.40
2022-08-17T02:11:32.309Z,12.20
2022-08-17T02:14:03.100Z,12.73
2022-08-17T02:16:37.070Z,13.60
2022-08-17T02:19:07.860Z,13.70
2022-08-17T02:21:35.904Z,13.07
2022-08-17T02:24:04.797Z,14.67
2022-08-17T02:26:31.582Z,13.70
2022-08-17T02:28:58.235Z,13.83
2022-08-17T02:31:24.893Z,13.93
2022-08-17T02:34:00.468Z,13.27
2022-08-17T02:36:31.944Z,13.13
2022-08-17T02:39:01.307Z,13.77
2022-08-17T02:41:27.965Z,14.27
2022-08-17T02:43:54.648Z,13.03
2022-08-17T02:46:21.350Z,13.23
2022-08-17T02:48:48.383Z,13.03
2022-08-17T02:51:15.638Z,12.70
2022-08-17T02:53:42.326Z,12.33
2022-08-17T02:56:08.948Z,12.73
2022-08-17T02:58:36.228Z,13.50
2022-08-17T03:01:05.644Z,14.20
2022-08-17T03:03:32.611Z,14.70
2022-08-17T03:05:59.297Z,15.27
2022-08-17T03:08:26.183Z,14.73
2022-08-17T03:10:53.038Z,14.73
2022-08-17T03:13:19.996Z,14.80
2022-08-17T03:15:47.892Z,14.47
2022-08-17T03:18:19.326Z,14.27
2022-08-17T03:20:58.314Z,13.37
2022-08-17T03:23:27.339Z,14.73
2022-08-17T03:25:55.069Z,13.10
2022-08-17T03:28:23.388Z,14.47
2022-08-17T03:30:51.152Z,14.60
2022-08-17T03:33:19.380Z,14.70
2022-08-17T03:35:46.697Z,15.13
2022-08-17T03:38:15.050Z,15.37
2022-08-17T03:40:56.411Z,14.77
2022-08-17T03:43:30.922Z,14.50
2022-08-17T03:46:27.984Z,14.77
2022-08-17T03:49:22.269Z,14.17
2022-08-17T03:52:07.541Z,13.80
2022-08-17T03:54:53.103Z,14.37
2022-08-17T03:57:19.797Z,14.73
2022-08-17T03:59:46.618Z,15.13
2022-08-17T04:02:28.213Z,15.53
2022-08-17T04:04:54.927Z,16.10
2022-08-17T04:07:24.599Z,15.87
2022-08-17T04:09:51.556Z,15.53
2022-08-17T04:12:20.097Z,17.93
2022-08-17T04:14:52.076Z,17.10
2022-08-17T04:17:26.781Z,17.63
2022-08-17T04:19:54.318Z,16.67
2022-08-17T04:22:30.310Z,16.20
2022-08-17T04:25:18.103Z,16.43
2022-08-17T04:27:44.758Z,17.17
2022-08-17T04:30:12.832Z,17.30
2022-08-17T04:33:06.195Z,16.57
2022-08-17T04:35:39.434Z,16.40
2022-08-17T04:38:08.083Z,16.90
2022-08-17T04:40:53.703Z,16.17
2022-08-17T04:43:23.058Z,15.40
2022-08-17T04:45:55.527Z,16.07
2022-08-17T04:48:27.846Z,16.10
2022-08-17T04:51:06.303Z,15.83
2022-08-17T04:53:33.113Z,16.43
2022-08-17T04:55:59.741Z,16.03
2022-08-17T04:58:26.531Z,16.20
2022-08-17T05:00:53.235Z,16.00
2022-08-17T05:03:19.895Z,15.47
2022-08-17T05:05:49.708Z,15.90
2022-08-17T05:08:18.894Z,14.53
2022-08-17T05:10:46.887Z,15.93
2022-08-17T05:13:17.522Z,16.17
2022-08-17T05:15:47.779Z,17.57
2022-08-17T05:18:15.474Z,16.57
2022-08-17T05:20:42.943Z,17.10
2022-08-17T05:23:13.187Z,17.47
2022-08-17T05:25:46.772Z,18.40
2022-08-17T05:28:16.218Z,17.60
2022-08-17T05:30:44.544Z,18.00
2022-08-17T05:33:28.284Z,17.60
2022-08-17T05:35:57.443Z,17.00
2022-08-17T05:38:26.440Z,17.73
2022-08-17T05:40:54.392Z,17.97
2022-08-17T05:43:24.340Z,16.87
2022-08-17T05:46:32.760Z,16.90
2022-08-17T05:49:04.273Z,16.97
2022-08-17T05:51:37.100Z,17.77
2022-08-17T05:54:31.676Z,18.00
2022-08-17T05:57:06.381Z,18.20
2022-08-17T05:59:50.642Z,17.10
2022-08-17T06:02:47.986Z,18.23
2022-08-17T06:05:47.783Z,12.67
2022-08-17T06:08:37.062Z,17.20
2022-08-17T06:11:32.787Z,17.03
2022-08-17T06:14:02.033Z,15.90
2022-08-17T06:16:35.433Z,18.03
2022-08-17T06:19:45.675Z,16.70
2022-08-17T06:22:16.647Z,17.37
2022-08-17T06:24:53.068Z,17.87
2022-08-17T06:27:25.093Z,15.40
2022-08-17T06:30:11.350Z,15.60
2022-08-17T06:32:40.639Z,18.60
2022-08-17T06:35:09.175Z,16.13
2022-08-17T06:38:08.478Z,16.43
2022-08-17T06:40:45.425Z,17.20
2022-08-17T06:43:27.780Z,16.43
2022-08-17T06:46:07.396Z,16.10
2022-08-17T06:48:42.563Z,14.20
2022-08-17T06:51:43.218Z,14.87
2022-08-17T06:54:23.871Z,14.27
2022-08-17T06:57:14.812Z,13.73
2022-08-17T06:59:59.265Z,14.03
2022-08-17T07:02:51.178Z,14.03
2022-08-17T07:05:23.518Z,13.13
2022-08-17T07:08:27.721Z,14.20
2022-08-17T07:11:02.900Z,14.43
2022-08-17T07:13:59.875Z,14.30
2022-08-17T07:16:32.937Z,5.43
2022-08-17T07:19:00.098Z,7.37
2022-08-17T07:21:51.635Z,8.77
2022-08-17T07:24:29.189Z,5.90
2022-08-17T07:27:13.895Z,11.83
2022-08-17T07:29:51.640Z,6.20
2022-08-17T07:32:23.177Z,5.37
2022-08-17T07:35:20.965Z,9.07
2022-08-17T07:37:54.010Z,9.33
2022-08-17T07:40:31.173Z,5.60
2022-08-17T07:43:08.266Z,4.90
2022-08-17T07:46:23.151Z,5.40
2022-08-17T07:48:54.125Z,4.87
2022-08-17T07:51:29.883Z,5.40
2022-08-17T07:54:13.570Z,5.13
2022-08-17T07:56:52.544Z,5.07
2022-08-17T07:59:33.809Z,8.00
2022-08-17T08:02:02.275Z,7.93
2022-08-17T08:07:31.682Z,8.77
2022-08-17T08:10:24.902Z,5.50
2022-08-17T08:13:07.244Z,5.73
2022-08-17T08:15:53.776Z,5.70
2022-08-17T08:18:54.347Z,8.50
2022-08-17T08:21:52.137Z,5.47
2022-08-17T08:24:37.117Z,7.03
2022-08-17T08:27:21.494Z,5.60
2022-08-17T08:29:48.088Z,5.50
2022-08-17T08:32:37.639Z,5.33
2022-08-17T08:35:26.668Z,5.27
2022-08-17T08:38:38.962Z,4.87
2022-08-17T08:41:45.664Z,6.00
2022-08-17T08:45:00.415Z,7.13
2022-08-17T08:48:05.981Z,6.27
2022-08-17T08:51:08.638Z,7.33
2022-08-17T08:53:52.414Z,8.27
2022-08-17T08:56:37.180Z,5.23
2022-08-17T08:59:22.068Z,4.93
2022-08-17T09:02:29.340Z,6.67
2022-08-17T09:05:37.844Z,5.23
2022-08-17T09:08:25.473Z,4.77
2022-08-17T09:11:17.277Z,5.27
2022-08-17T09:14:20.988Z,5.20
2022-08-17T09:17:03.327Z,7.17
2022-08-17T09:19:30.469Z,5.27
2022-08-17T09:22:21.287Z,4.90
2022-08-17T09:25:00.771Z,4.60
2022-08-17T09:27:51.864Z,4.87
2022-08-17T09:30:20.215Z,7.33
2022-08-17T09:32:58.759Z,4.83
2022-08-17T09:35:36.919Z,5.50
2022-08-17T09:38:21.182Z,5.07
2022-08-17T09:41:16.412Z,5.20
2022-08-17T09:44:06.940Z,5.10
2022-08-17T09:46:40.621Z,4.97
2022-08-17T09:49:29.415Z,4.77
2022-08-17T09:52:05.526Z,5.00
2022-08-17T09:54:39.596Z,5.10
2022-08-17T09:57:37.879Z,5.03
2022-08-17T10:00:29.676Z,5.43
2022-08-17T10:03:16.347Z,5.10
2022-08-17T10:05:55.014Z,6.70
2022-08-17T10:08:52.373Z,6.27
2022-08-17T10:11:57.876Z,5.10
2022-08-17T10:14:53.263Z,6.03
2022-08-17T10:17:42.892Z,6.60
2022-08-17T10:20:15.899Z,4.87
2022-08-17T10:23:07.398Z,5.40
2022-08-17T10:26:13.610Z,4.97
2022-08-17T10:28:49.972Z,5.00
2022-08-17T10:31:40.512Z,5.37
2022-08-17T10:34:24.901Z,5.03
2022-08-17T10:37:04.230Z,6.00
2022-08-17T10:39:57.312Z,5.57
2022-08-17T10:42:53.134Z,14.83
2022-08-17T10:45:26.158Z,5.10
2022-08-17T10:48:07.161Z,5.47
2022-08-17T10:50:57.596Z,5.53
2022-08-17T10:53:33.589Z,5.50
2022-08-17T10:56:12.677Z,4.90
2022-08-17T10:58:54.853Z,5.00
2022-08-17T11:01:58.204Z,5.50
2022-08-17T11:04:49.529Z,5.47
2022-08-17T11:07:23.700Z,5.93
2022-08-17T11:10:38.648Z,6.10
2022-08-17T11:13:31.125Z,5.60
2022-08-17T11:16:37.678Z,6.13
2022-08-17T11:19:30.739Z,5.83
2022-08-17T11:22:06.370Z,4.67
2022-08-17T11:24:43.371Z,5.90
2022-08-17T11:27:29.722Z,4.97
2022-08-17T11:30:02.216Z,4.90
2022-08-17T11:32:54.495Z,6.80
2022-08-17T11:35:21.437Z,5.10
2022-08-17T11:38:03.050Z,4.70
2022-08-17T11:40:59.639Z,4.83
2022-08-17T11:43:58.991Z,4.47
2022-08-17T11:47:18.504Z,5.23
2022-08-17T11:50:27.719Z,6.20
2022-08-17T11:52:55.000Z,6.00
2022-08-17T11:55:37.475Z,7.03
2022-08-17T11:58:25.707Z,6.87
2022-08-17T12:01:08.361Z,6.53
2022-08-17T12:03:34.962Z,6.83
2022-08-17T12:06:41.958Z,5.20
2022-08-17T12:09:26.212Z,4.90
2022-08-17T12:12:12.031Z,6.50
2022-08-17T12:15:09.044Z,4.90
2022-08-17T12:17:40.636Z,4.80
2022-08-17T12:20:19.618Z,4.97
2022-08-17T12:23:04.356Z,4.77
2022-08-17T12:25:41.406Z,5.27
2022-08-17T12:28:30.287Z,6.20
2022-08-17T12:31:03.405Z,5.10
2022-08-17T12:33:30.395Z,6.60
2022-08-17T12:36:03.615Z,5.83
2022-08-17T12:38:36.753Z,5.90
2022-08-17T12:41:27.004Z,5.40
2022-08-17T12:44:03.929Z,5.70
2022-08-17T12:46:46.909Z,5.13
2022-08-17T12:49:26.412Z,5.50
2022-08-17T12:52:05.626Z,5.33
2022-08-17T12:54:49.918Z,5.27
2022-08-17T12:57:39.497Z,5.97
2022-08-17T13:00:15.665Z,5.87
2022-08-17T13:02:48.245Z,5.57
2022-08-17T13:05:27.658Z,5.37
2022-08-17T13:07:57.650Z,5.73
2022-08-17T13:10:33.488Z,5.20
2022-08-17T13:13:17.520Z,6.37
2022-08-17T13:15:54.231Z,6.03
2022-08-17T13:18:41.339Z,5.83
2022-08-17T13:21:21.996Z,6.30
2022-08-17T13:24:02.355Z,6.97
2022-08-17T13:26:36.740Z,6.47
2022-08-17T13:29:20.701Z,5.63
2022-08-17T13:31:52.920Z,7.07
2022-08-17T13:34:29.095Z,6.40
2022-08-17T13:37:27.108Z,5.30
2022-08-17T13:40:07.484Z,5.40
2022-08-17T13:42:53.080Z,6.07
2022-08-17T13:45:36.886Z,5.97
2022-08-17T13:48:08.784Z,6.27
2022-08-17T13:50:49.123Z,6.17
2022-08-17T13:53:27.791Z,6.17
2022-08-17T13:55:58.794Z,6.40
2022-08-17T13:58:32.660Z,5.47
2022-08-17T14:01:29.778Z,6.07
2022-08-17T14:03:58.616Z,5.47
2022-08-17T14:06:51.896Z,5.97
2022-08-17T14:09:17.531Z,5.90
2022-08-17T14:11:49.075Z,5.50
2022-08-17T14:14:16.590Z,5.67
2022-08-17T14:16:43.615Z,6.10
2022-08-17T14:19:14.844Z,6.30
2022-08-17T14:21:44.357Z,6.13
2022-08-17T14:24:24.089Z,6.07
2022-08-17T14:26:54.641Z,6.80
2022-08-17T14:29:25.575Z,5.63
2022-08-17T14:31:54.092Z,5.53
2022-08-17T14:34:22.574Z,5.60
2022-08-17T14:36:57.051Z,5.77
2022-08-17T14:39:32.634Z,6.43
2022-08-17T14:42:03.311Z,5.47
2022-08-17T14:44:30.142Z,5.73
2022-08-17T14:46:56.783Z,6.00
2022-08-17T14:49:27.795Z,5.90
2022-08-17T14:51:58.719Z,5.63
2022-08-17T14:54:33.228Z,6.37
2022-08-17T14:57:24.638Z,6.10
2022-08-17T14:59:55.551Z,6.13
2022-08-17T15:02:30.189Z,6.03
2022-08-17T15:05:03.417Z,5.70
2022-08-17T15:07:30.833Z,6.40
2022-08-17T15:10:02.539Z,5.57
2022-08-17T15:12:34.711Z,6.00
2022-08-17T15:15:06.174Z,5.43
2022-08-17T15:17:45.080Z,6.20
2022-08-17T15:20:25.029Z,5.60
2022-08-17T15:22:55.684Z,6.13
2022-08-17T15:25:25.347Z,6.73
2022-08-17T15:27:52.693Z,5.77
2022-08-17T15:30:20.331Z,5.80
2022-08-17T15:32:54.701Z,5.13
2022-08-17T15:35:28.992Z,5.33
2022-08-17T15:37:58.267Z,5.63
2022-08-17T15:40:25.260Z,6.03
2022-08-17T15:42:52.262Z,5.37
2022-08-17T15:45:24.495Z,5.47
2022-08-17T15:47:52.475Z,5.37
2022-08-17T15:50:27.103Z,5.40
2022-08-17T15:53:02.302Z,5.47
2022-08-17T15:55:31.192Z,5.07
2022-08-17T15:57:58.603Z,6.00
2022-08-17T16:00:28.242Z,5.70
2022-08-17T16:03:44.371Z,5.80
2022-08-17T16:05:46.242Z,5.27
2022-08-17T16:08:18.460Z,5.80
2022-08-17T16:10:49.414Z,5.90
2022-08-17T16:13:18.181Z,5.67
2022-08-17T16:15:56.617Z,5.67
2022-08-17T16:18:30.684Z,6.43
2022-08-17T16:21:19.484Z,5.70
2022-08-17T16:23:48.094Z,6.00
2022-08-17T16:26:22.963Z,5.80
2022-08-17T16:28:51.265Z,6.40
2022-08-17T16:31:17.997Z,5.90
2022-08-17T16:34:16.183Z,5.57
2022-08-17T16:36:37.564Z,5.83
2022-08-17T16:39:04.713Z,6.17
2022-08-17T16:41:45.246Z,6.00
2022-08-17T16:44:18.136Z,5.80
2022-08-17T16:46:47.095Z,5.63
2022-08-17T16:49:35.749Z,6.00
2022-08-17T16:52:04.871Z,5.40
2022-08-17T16:54:32.006Z,5.70
2022-08-17T16:56:59.116Z,5.97
2022-08-17T16:59:30.855Z,5.60
2022-08-17T17:02:04.767Z,5.70
2022-08-17T17:04:35.294Z,5.67
2022-08-17T17:07:38.678Z,6.00
2022-08-17T17:10:09.686Z,5.80
2022-08-17T17:13:02.119Z,5.77
2022-08-17T17:15:31.596Z,6.00
2022-08-17T17:18:06.936Z,6.07
2022-08-17T17:20:47.945Z,5.97
2022-08-17T17:23:33.908Z,5.73
2022-08-17T17:26:31.069Z,5.43
2022-08-17T17:29:26.627Z,5.93
2022-08-17T17:32:20.671Z,5.90
2022-08-17T17:34:56.001Z,5.87
2022-08-17T17:37:29.438Z,6.00
2022-08-17T17:39:59.693Z,5.60
2022-08-17T17:42:31.322Z,5.67
2022-08-17T17:45:23.825Z,5.40
2022-08-17T17:47:50.813Z,6.30
2022-08-17T17:50:37.614Z,5.73
2022-08-17T17:53:07.499Z,5.80
2022-08-17T17:56:01.070Z,5.60
2022-08-17T17:58:38.574Z,5.17
2022-08-17T18:01:31.506Z,6.10
2022-08-17T18:04:21.254Z,5.93
2022-08-17T18:07:22.832Z,6.17
2022-08-17T18:10:01.117Z,5.30
2022-08-17T18:12:44.693Z,6.33
2022-08-17T18:15:31.300Z,5.13
2022-08-17T18:18:02.437Z,6.10
2022-08-17T18:20:36.465Z,6.93
2022-08-17T18:23:16.303Z,6.43
2022-08-17T18:25:52.155Z,5.53
2022-08-17T18:28:30.241Z,6.30
2022-08-17T18:31:20.299Z,4.97
2022-08-17T18:33:55.474Z,4.77
2022-08-17T18:36:36.468Z,4.50
2022-08-17T18:39:44.816Z,9.27
2022-08-17T18:42:26.801Z,15.73
2022-08-17T18:44:55.419Z,11.87
2022-08-17T18:47:27.961Z,7.03
2022-08-17T18:50:15.130Z,6.77
2022-08-17T18:52:41.947Z,6.10
2022-08-17T18:55:22.451Z,5.53
2022-08-17T18:57:57.515Z,6.37
2022-08-17T19:00:44.488Z,5.20
2022-08-17T19:03:20.151Z,5.23
2022-08-17T19:05:54.926Z,5.97
2022-08-17T19:08:34.622Z,5.63
2022-08-17T19:11:26.867Z,5.63
2022-08-17T19:13:57.227Z,5.20
2022-08-17T19:16:44.975Z,5.33
2022-08-17T19:19:19.529Z,5.87
2022-08-17T19:22:28.886Z,5.13
2022-08-17T19:25:10.390Z,5.50
2022-08-17T19:27:46.480Z,5.67
2022-08-17T19:30:17.433Z,5.07
2022-08-17T19:32:44.465Z,5.00
2022-08-17T19:35:17.310Z,5.40
2022-08-17T19:38:23.845Z,5.80
2022-08-17T19:41:13.068Z,5.57
2022-08-17T19:43:55.022Z,5.63
2022-08-17T19:46:39.334Z,5.60
2022-08-17T19:49:41.213Z,5.10
2022-08-17T19:52:32.460Z,5.73
2022-08-17T19:55:15.787Z,5.40
2022-08-17T19:58:01.042Z,5.70
2022-08-17T20:00:31.179Z,5.00
2022-08-17T20:03:16.805Z,5.43
2022-08-17T20:06:14.499Z,5.40
2022-08-17T20:08:51.870Z,5.30
2022-08-17T20:11:30.180Z,5.23
2022-08-17T20:14:14.383Z,5.40
2022-08-17T20:16:41.798Z,4.83
2022-08-17T20:19:24.058Z,5.17
2022-08-17T20:21:56.465Z,5.27
2022-08-17T20:24:23.074Z,5.47
2022-08-17T20:26:58.655Z,5.17
2022-08-17T20:30:00.690Z,5.37
2022-08-17T20:32:30.899Z,4.97
2022-08-17T20:35:09.572Z,5.53
2022-08-17T20:37:43.101Z,5.40
2022-08-17T20:40:09.822Z,5.17
2022-08-17T20:42:36.932Z,5.07
2022-08-17T20:45:22.097Z,5.57
2022-08-17T20:48:18.473Z,4.93
2022-08-17T20:50:46.139Z,5.23
2022-08-17T20:53:47.697Z,5.63
2022-08-17T20:56:43.031Z,5.00
2022-08-17T20:59:28.500Z,5.13
2022-08-17T21:02:17.529Z,5.33
2022-08-17T21:04:52.854Z,5.10
2022-08-17T21:07:57.997Z,5.17
2022-08-17T21:10:24.860Z,5.07
2022-08-17T21:13:08.107Z,5.30
2022-08-17T21:16:06.293Z,4.57
2022-08-17T21:18:38.534Z,5.20
2022-08-17T21:21:35.861Z,4.97
2022-08-17T21:24:15.188Z,4.77
2022-08-17T21:26:55.286Z,4.60
2022-08-17T21:29:31.136Z,5.00
2022-08-17T21:31:59.379Z,5.00
2022-08-17T21:35:17.528Z,4.80
2022-08-17T21:37:47.882Z,4.90
2022-08-17T21:40:17.914Z,5.20
2022-08-17T21:42:52.653Z,4.20
2022-08-17T21:45:37.820Z,4.73
2022-08-17T21:48:24.441Z,4.37
2022-08-17T21:51:03.664Z,4.73
2022-08-17T21:53:58.459Z,4.10
2022-08-17T21:56:29.390Z,4.70
2022-08-17T21:59:06.467Z,5.17
2022-08-17T22:01:40.752Z,4.47
2022-08-17T22:04:11.206Z,4.80
2022-08-17T22:06:39.868Z,4.87
2022-08-17T22:09:26.719Z,4.67
2022-08-17T22:12:16.669Z,4.57
2022-08-17T22:14:53.424Z,5.20
2022-08-17T22:17:29.597Z,4.97
2022-08-17T22:20:01.413Z,4.70
2022-08-17T22:22:59.422Z,5.03
2022-08-17T22:25:27.879Z,5.00
2022-08-17T22:28:01.033Z,5.00
2022-08-17T22:30:30.713Z,4.70
2022-08-17T22:32:58.735Z,4.40
2022-08-17T22:35:28.770Z,4.23
2022-08-17T22:37:56.460Z,3.97
2022-08-17T22:40:32.289Z,3.80
2022-08-17T22:43:02.125Z,4.30
2022-08-17T22:45:30.340Z,4.00
2022-08-17T22:48:00.172Z,4.13
2022-08-17T22:50:31.293Z,4.03
2022-08-17T22:53:20.216Z,3.80
2022-08-17T22:56:13.384Z,4.00
2022-08-17T22:59:15.718Z,4.37
2022-08-17T23:01:45.361Z,3.77
2022-08-17T23:04:35.757Z,3.57
2022-08-17T23:07:02.534Z,3.87
2022-08-17T23:09:29.804Z,3.47
2022-08-17T23:11:59.432Z,3.83
2022-08-17T23:14:31.337Z,3.93
2022-08-17T23:17:01.827Z,3.57
2022-08-17T23:19:31.636Z,4.20
2022-08-17T23:21:59.624Z,2.93
2022-08-17T23:24:28.328Z,4.20
2022-08-17T23:26:57.318Z,3.43
2022-08-17T23:29:25.215Z,4.07
2022-08-17T23:31:52.596Z,3.47
2022-08-17T23:34:19.596Z,3.50
2022-08-17T23:36:50.589Z,3.53
2022-08-17T23:39:27.289Z,2.80
2022-08-17T23:41:58.428Z,3.40
2022-08-17T23:44:26.255Z,3.80
2022-08-17T23:46:53.468Z,3.47
2022-08-17T23:49:20.852Z,3.30
2022-08-17T23:51:48.744Z,3.00
2022-08-17T23:54:27.869Z,3.27
2022-08-17T23:56:54.535Z,3.53
2022-08-17T23:59:22.813Z,4.33
